sensor_id;sensor_type;location;lat;lon;timestamp;P1;durP1;ratioP1;P2;durP2;ratioP2
25721;SDS011;13578;53.450;15.496;2023-05-17T00:02:44;4.82;;;3.20;;
25721;SDS011;13578;53.450;15.496;2023-05-17T00:05:45;6.38;;;3.00;;
25721;SDS011;13578;53.450;15.496;2023-05-17T00:08:45;5.75;;;3.33;;
25721;SDS011;13578;53.450;15.496;2023-05-17T00:11:46;4.47;;;2.45;;
25721;SDS011;13578;53.450;15.496;2023-05-17T00:14:46;6.78;;;2.55;;
25721;SDS011;13578;53.450;15.496;2023-05-17T00:17:47;4.25;;;2.60;;
25721;SDS011;13578;53.450;15.496;2023-05-17T00:20:48;14.15;;;3.25;;
25721;SDS011;13578;53.450;15.496;2023-05-17T00:23:48;3.97;;;2.35;;
25721;SDS011;13578;53.450;15.496;2023-05-17T00:26:49;8.45;;;3.20;;
25721;SDS011;13578;53.450;15.496;2023-05-17T00:29:49;4.97;;;2.92;;
25721;SDS011;13578;53.450;15.496;2023-05-17T00:32:50;4.63;;;2.35;;
25721;SDS011;13578;53.450;15.496;2023-05-17T00:35:51;7.45;;;2.30;;
25721;SDS011;13578;53.450;15.496;2023-05-17T00:38:51;3.50;;;2.25;;
25721;SDS011;13578;53.450;15.496;2023-05-17T00:41:52;11.07;;;2.40;;
25721;SDS011;13578;53.450;15.496;2023-05-17T00:44:52;8.15;;;3.38;;
25721;SDS011;13578;53.450;15.496;2023-05-17T00:47:53;4.28;;;3.20;;
25721;SDS011;13578;53.450;15.496;2023-05-17T00:50:57;20.30;;;3.30;;
25721;SDS011;13578;53.450;15.496;2023-05-17T00:53:58;5.93;;;2.80;;
25721;SDS011;13578;53.450;15.496;2023-05-17T00:56:59;4.60;;;2.53;;
25721;SDS011;13578;53.450;15.496;2023-05-17T01:00:00;7.35;;;3.03;;
25721;SDS011;13578;53.450;15.496;2023-05-17T01:03:01;7.65;;;3.05;;
25721;SDS011;13578;53.450;15.496;2023-05-17T01:06:01;6.05;;;2.90;;
25721;SDS011;13578;53.450;15.496;2023-05-17T01:09:03;5.10;;;3.50;;
25721;SDS011;13578;53.450;15.496;2023-05-17T01:15:40;7.15;;;2.72;;
25721;SDS011;13578;53.450;15.496;2023-05-17T01:18:51;4.47;;;2.58;;
25721;SDS011;13578;53.450;15.496;2023-05-17T01:25:10;14.40;;;3.38;;
25721;SDS011;13578;53.450;15.496;2023-05-17T01:28:20;4.10;;;2.50;;
25721;SDS011;13578;53.450;15.496;2023-05-17T01:31:22;7.32;;;2.90;;
25721;SDS011;13578;53.450;15.496;2023-05-17T01:34:27;2.85;;;2.60;;
25721;SDS011;13578;53.450;15.496;2023-05-17T01:37:28;7.03;;;2.58;;
25721;SDS011;13578;53.450;15.496;2023-05-17T01:40:29;11.32;;;3.30;;
25721;SDS011;13578;53.450;15.496;2023-05-17T01:43:38;5.13;;;3.15;;
25721;SDS011;13578;53.450;15.496;2023-05-17T01:46:46;6.78;;;3.40;;
25721;SDS011;13578;53.450;15.496;2023-05-17T01:49:51;13.00;;;3.80;;
25721;SDS011;13578;53.450;15.496;2023-05-17T01:52:55;4.85;;;2.80;;
25721;SDS011;13578;53.450;15.496;2023-05-17T01:56:19;8.27;;;3.15;;
25721;SDS011;13578;53.450;15.496;2023-05-17T01:59:21;6.50;;;3.30;;
25721;SDS011;13578;53.450;15.496;2023-05-17T02:02:24;13.88;;;3.30;;
25721;SDS011;13578;53.450;15.496;2023-05-17T02:05:25;3.83;;;2.97;;
25721;SDS011;13578;53.450;15.496;2023-05-17T02:08:25;9.18;;;3.55;;
25721;SDS011;13578;53.450;15.496;2023-05-17T02:11:26;9.13;;;3.30;;
25721;SDS011;13578;53.450;15.496;2023-05-17T02:14:26;7.43;;;3.75;;
25721;SDS011;13578;53.450;15.496;2023-05-17T02:17:27;4.72;;;3.13;;
25721;SDS011;13578;53.450;15.496;2023-05-17T02:20:27;9.65;;;3.30;;
25721;SDS011;13578;53.450;15.496;2023-05-17T02:23:28;4.97;;;3.15;;
25721;SDS011;13578;53.450;15.496;2023-05-17T02:26:29;11.30;;;4.45;;
25721;SDS011;13578;53.450;15.496;2023-05-17T02:29:30;10.95;;;3.55;;
25721;SDS011;13578;53.450;15.496;2023-05-17T02:32:31;5.30;;;3.53;;
25721;SDS011;13578;53.450;15.496;2023-05-17T02:35:32;8.35;;;3.58;;
25721;SDS011;13578;53.450;15.496;2023-05-17T02:38:33;13.65;;;3.58;;
25721;SDS011;13578;53.450;15.496;2023-05-17T02:41:34;6.43;;;3.38;;
25721;SDS011;13578;53.450;15.496;2023-05-17T02:44:34;7.28;;;3.30;;
25721;SDS011;13578;53.450;15.496;2023-05-17T02:47:35;9.32;;;4.03;;
25721;SDS011;13578;53.450;15.496;2023-05-17T02:50:35;6.30;;;3.55;;
25721;SDS011;13578;53.450;15.496;2023-05-17T02:53:36;13.05;;;3.67;;
25721;SDS011;13578;53.450;15.496;2023-05-17T02:56:37;10.50;;;3.85;;
25721;SDS011;13578;53.450;15.496;2023-05-17T02:59:38;8.50;;;3.88;;
25721;SDS011;13578;53.450;15.496;2023-05-17T03:02:38;8.30;;;3.92;;
25721;SDS011;13578;53.450;15.496;2023-05-17T03:05:39;11.52;;;3.50;;
25721;SDS011;13578;53.450;15.496;2023-05-17T03:08:39;8.77;;;3.65;;
25721;SDS011;13578;53.450;15.496;2023-05-17T03:11:40;8.45;;;3.70;;
25721;SDS011;13578;53.450;15.496;2023-05-17T03:14:41;8.18;;;3.50;;
25721;SDS011;13578;53.450;15.496;2023-05-17T03:17:41;5.53;;;3.55;;
25721;SDS011;13578;53.450;15.496;2023-05-17T03:20:42;9.35;;;3.33;;
25721;SDS011;13578;53.450;15.496;2023-05-17T03:23:42;5.43;;;3.53;;
25721;SDS011;13578;53.450;15.496;2023-05-17T03:26:43;11.60;;;3.70;;
25721;SDS011;13578;53.450;15.496;2023-05-17T03:29:43;6.07;;;3.53;;
25721;SDS011;13578;53.450;15.496;2023-05-17T03:32:44;8.85;;;3.60;;
25721;SDS011;13578;53.450;15.496;2023-05-17T03:35:45;13.77;;;4.00;;
25721;SDS011;13578;53.450;15.496;2023-05-17T03:38:46;6.53;;;2.85;;
25721;SDS011;13578;53.450;15.496;2023-05-17T03:41:46;13.35;;;4.55;;
25721;SDS011;13578;53.450;15.496;2023-05-17T03:44:47;9.60;;;2.90;;
25721;SDS011;13578;53.450;15.496;2023-05-17T03:47:47;13.98;;;3.05;;
25721;SDS011;13578;53.450;15.496;2023-05-17T03:50:48;11.18;;;3.65;;
25721;SDS011;13578;53.450;15.496;2023-05-17T03:53:54;4.10;;;2.83;;
25721;SDS011;13578;53.450;15.496;2023-05-17T03:56:57;8.10;;;3.33;;
25721;SDS011;13578;53.450;15.496;2023-05-17T03:59:58;10.00;;;3.63;;
25721;SDS011;13578;53.450;15.496;2023-05-17T04:02:58;4.47;;;2.53;;
25721;SDS011;13578;53.450;15.496;2023-05-17T04:06:03;7.82;;;3.20;;
25721;SDS011;13578;53.450;15.496;2023-05-17T04:09:07;5.30;;;3.25;;
25721;SDS011;13578;53.450;15.496;2023-05-17T04:12:09;12.63;;;3.28;;
25721;SDS011;13578;53.450;15.496;2023-05-17T04:15:10;6.68;;;2.85;;
25721;SDS011;13578;53.450;15.496;2023-05-17T04:18:11;10.85;;;3.78;;
25721;SDS011;13578;53.450;15.496;2023-05-17T04:21:12;15.20;;;4.15;;
25721;SDS011;13578;53.450;15.496;2023-05-17T04:24:12;17.13;;;3.55;;
25721;SDS011;13578;53.450;15.496;2023-05-17T04:27:13;13.65;;;3.97;;
25721;SDS011;13578;53.450;15.496;2023-05-17T04:30:13;4.82;;;3.35;;
25721;SDS011;13578;53.450;15.496;2023-05-17T04:33:14;9.70;;;3.45;;
25721;SDS011;13578;53.450;15.496;2023-05-17T04:36:15;12.30;;;3.53;;
25721;SDS011;13578;53.450;15.496;2023-05-17T04:39:16;10.38;;;3.65;;
25721;SDS011;13578;53.450;15.496;2023-05-17T04:42:17;11.88;;;3.80;;
25721;SDS011;13578;53.450;15.496;2023-05-17T04:45:17;8.13;;;3.72;;
25721;SDS011;13578;53.450;15.496;2023-05-17T04:48:18;9.43;;;3.97;;
25721;SDS011;13578;53.450;15.496;2023-05-17T04:51:19;10.50;;;3.58;;
25721;SDS011;13578;53.450;15.496;2023-05-17T04:54:20;10.75;;;4.15;;
25721;SDS011;13578;53.450;15.496;2023-05-17T04:57:20;12.82;;;5.53;;
25721;SDS011;13578;53.450;15.496;2023-05-17T05:00:21;13.90;;;4.80;;
25721;SDS011;13578;53.450;15.496;2023-05-17T05:03:22;8.57;;;3.72;;
25721;SDS011;13578;53.450;15.496;2023-05-17T05:06:23;9.65;;;3.50;;
25721;SDS011;13578;53.450;15.496;2023-05-17T05:09:24;10.10;;;4.88;;
25721;SDS011;13578;53.450;15.496;2023-05-17T05:12:24;21.25;;;4.72;;
25721;SDS011;13578;53.450;15.496;2023-05-17T05:15:25;14.57;;;4.28;;
25721;SDS011;13578;53.450;15.496;2023-05-17T05:18:26;17.55;;;4.68;;
25721;SDS011;13578;53.450;15.496;2023-05-17T05:21:27;16.38;;;4.72;;
25721;SDS011;13578;53.450;15.496;2023-05-17T05:24:27;9.73;;;3.95;;
25721;SDS011;13578;53.450;15.496;2023-05-17T05:27:28;10.07;;;4.57;;
25721;SDS011;13578;53.450;15.496;2023-05-17T05:30:28;10.05;;;4.35;;
25721;SDS011;13578;53.450;15.496;2023-05-17T05:33:29;11.38;;;4.53;;
25721;SDS011;13578;53.450;15.496;2023-05-17T05:36:31;7.50;;;4.43;;
25721;SDS011;13578;53.450;15.496;2023-05-17T05:39:31;10.52;;;4.13;;
25721;SDS011;13578;53.450;15.496;2023-05-17T05:42:32;16.35;;;4.72;;
25721;SDS011;13578;53.450;15.496;2023-05-17T05:45:33;9.65;;;4.47;;
25721;SDS011;13578;53.450;15.496;2023-05-17T05:48:33;19.63;;;4.88;;
25721;SDS011;13578;53.450;15.496;2023-05-17T05:51:38;14.25;;;4.72;;
25721;SDS011;13578;53.450;15.496;2023-05-17T05:54:38;10.95;;;4.13;;
25721;SDS011;13578;53.450;15.496;2023-05-17T05:57:39;11.38;;;4.53;;
25721;SDS011;13578;53.450;15.496;2023-05-17T06:00:39;12.90;;;4.70;;
25721;SDS011;13578;53.450;15.496;2023-05-17T06:03:40;23.95;;;3.75;;
25721;SDS011;13578;53.450;15.496;2023-05-17T06:06:41;17.05;;;4.53;;
25721;SDS011;13578;53.450;15.496;2023-05-17T06:09:41;8.35;;;4.00;;
25721;SDS011;13578;53.450;15.496;2023-05-17T06:12:42;10.35;;;3.40;;
25721;SDS011;13578;53.450;15.496;2023-05-17T06:15:42;20.42;;;3.83;;
25721;SDS011;13578;53.450;15.496;2023-05-17T06:18:43;12.05;;;2.90;;
25721;SDS011;13578;53.450;15.496;2023-05-17T06:21:44;14.13;;;3.60;;
25721;SDS011;13578;53.450;15.496;2023-05-17T06:24:44;9.63;;;3.05;;
25721;SDS011;13578;53.450;15.496;2023-05-17T06:27:46;9.70;;;3.92;;
25721;SDS011;13578;53.450;15.496;2023-05-17T06:30:47;8.65;;;2.90;;
25721;SDS011;13578;53.450;15.496;2023-05-17T06:33:48;6.90;;;2.50;;
25721;SDS011;13578;53.450;15.496;2023-05-17T06:36:48;14.30;;;3.97;;
25721;SDS011;13578;53.450;15.496;2023-05-17T06:39:49;19.05;;;3.42;;
25721;SDS011;13578;53.450;15.496;2023-05-17T06:42:50;10.18;;;3.00;;
25721;SDS011;13578;53.450;15.496;2023-05-17T06:45:51;16.70;;;2.38;;
25721;SDS011;13578;53.450;15.496;2023-05-17T06:48:51;9.50;;;3.90;;
25721;SDS011;13578;53.450;15.496;2023-05-17T06:51:52;11.60;;;2.92;;
25721;SDS011;13578;53.450;15.496;2023-05-17T06:54:54;16.00;;;3.42;;
25721;SDS011;13578;53.450;15.496;2023-05-17T06:57:55;14.27;;;3.58;;
25721;SDS011;13578;53.450;15.496;2023-05-17T07:00:56;9.20;;;3.30;;
25721;SDS011;13578;53.450;15.496;2023-05-17T07:03:57;20.25;;;4.20;;
25721;SDS011;13578;53.450;15.496;2023-05-17T07:06:57;14.63;;;3.28;;
25721;SDS011;13578;53.450;15.496;2023-05-17T07:09:58;13.77;;;2.88;;
25721;SDS011;13578;53.450;15.496;2023-05-17T07:12:59;12.30;;;3.05;;
25721;SDS011;13578;53.450;15.496;2023-05-17T07:15:59;9.07;;;2.72;;
25721;SDS011;13578;53.450;15.496;2023-05-17T07:19:00;8.30;;;2.85;;
25721;SDS011;13578;53.450;15.496;2023-05-17T07:22:00;9.95;;;2.42;;
25721;SDS011;13578;53.450;15.496;2023-05-17T07:25:01;9.43;;;2.70;;
25721;SDS011;13578;53.450;15.496;2023-05-17T07:28:02;13.10;;;4.03;;
25721;SDS011;13578;53.450;15.496;2023-05-17T07:31:02;15.70;;;3.08;;
25721;SDS011;13578;53.450;15.496;2023-05-17T07:34:03;10.43;;;2.28;;
25721;SDS011;13578;53.450;15.496;2023-05-17T07:37:04;10.38;;;1.88;;
25721;SDS011;13578;53.450;15.496;2023-05-17T07:40:05;6.22;;;1.83;;
25721;SDS011;13578;53.450;15.496;2023-05-17T07:43:06;5.88;;;1.95;;
25721;SDS011;13578;53.450;15.496;2023-05-17T07:46:06;8.18;;;2.42;;
25721;SDS011;13578;53.450;15.496;2023-05-17T07:49:07;8.57;;;1.95;;
25721;SDS011;13578;53.450;15.496;2023-05-17T07:52:08;13.80;;;2.45;;
25721;SDS011;13578;53.450;15.496;2023-05-17T07:55:09;15.68;;;2.65;;
25721;SDS011;13578;53.450;15.496;2023-05-17T07:58:09;12.30;;;2.00;;
25721;SDS011;13578;53.450;15.496;2023-05-17T08:01:10;11.05;;;2.33;;
25721;SDS011;13578;53.450;15.496;2023-05-17T08:04:11;12.18;;;2.10;;
25721;SDS011;13578;53.450;15.496;2023-05-17T08:07:13;8.27;;;2.58;;
25721;SDS011;13578;53.450;15.496;2023-05-17T08:10:13;6.13;;;2.03;;
25721;SDS011;13578;53.450;15.496;2023-05-17T08:13:14;4.55;;;1.70;;
25721;SDS011;13578;53.450;15.496;2023-05-17T08:16:15;9.35;;;2.13;;
25721;SDS011;13578;53.450;15.496;2023-05-17T08:19:16;10.45;;;1.60;;
25721;SDS011;13578;53.450;15.496;2023-05-17T08:22:17;5.72;;;1.70;;
25721;SDS011;13578;53.450;15.496;2023-05-17T08:25:18;6.80;;;1.67;;
25721;SDS011;13578;53.450;15.496;2023-05-17T08:28:20;11.60;;;2.15;;
25721;SDS011;13578;53.450;15.496;2023-05-17T08:31:21;20.30;;;2.22;;
25721;SDS011;13578;53.450;15.496;2023-05-17T08:34:21;9.60;;;2.00;;
25721;SDS011;13578;53.450;15.496;2023-05-17T08:37:22;7.35;;;1.50;;
25721;SDS011;13578;53.450;15.496;2023-05-17T08:40:23;7.30;;;1.58;;
25721;SDS011;13578;53.450;15.496;2023-05-17T08:43:23;5.68;;;2.20;;
25721;SDS011;13578;53.450;15.496;2023-05-17T08:46:25;12.02;;;1.75;;
25721;SDS011;13578;53.450;15.496;2023-05-17T08:49:27;8.68;;;2.03;;
25721;SDS011;13578;53.450;15.496;2023-05-17T08:52:32;7.63;;;1.63;;
25721;SDS011;13578;53.450;15.496;2023-05-17T08:55:35;15.02;;;2.50;;
25721;SDS011;13578;53.450;15.496;2023-05-17T08:58:36;8.32;;;1.85;;
25721;SDS011;13578;53.450;15.496;2023-05-17T09:01:40;16.80;;;2.65;;
25721;SDS011;13578;53.450;15.496;2023-05-17T09:04:43;5.47;;;1.75;;
25721;SDS011;13578;53.450;15.496;2023-05-17T09:07:44;10.48;;;2.15;;
25721;SDS011;13578;53.450;15.496;2023-05-17T09:10:46;7.53;;;1.88;;
25721;SDS011;13578;53.450;15.496;2023-05-17T09:13:47;7.82;;;2.00;;
25721;SDS011;13578;53.450;15.496;2023-05-17T09:16:50;12.40;;;1.90;;
25721;SDS011;13578;53.450;15.496;2023-05-17T09:19:58;9.48;;;2.38;;
25721;SDS011;13578;53.450;15.496;2023-05-17T09:22:59;9.68;;;2.08;;
25721;SDS011;13578;53.450;15.496;2023-05-17T09:26:06;10.00;;;1.60;;
25721;SDS011;13578;53.450;15.496;2023-05-17T09:29:08;5.28;;;1.35;;
25721;SDS011;13578;53.450;15.496;2023-05-17T09:32:12;15.23;;;2.42;;
25721;SDS011;13578;53.450;15.496;2023-05-17T09:35:17;14.15;;;1.52;;
25721;SDS011;13578;53.450;15.496;2023-05-17T09:38:18;13.50;;;1.63;;
25721;SDS011;13578;53.450;15.496;2023-05-17T09:41:20;22.63;;;3.17;;
25721;SDS011;13578;53.450;15.496;2023-05-17T09:44:22;11.32;;;2.50;;
25721;SDS011;13578;53.450;15.496;2023-05-17T09:47:28;11.93;;;1.83;;
25721;SDS011;13578;53.450;15.496;2023-05-17T09:50:29;10.32;;;1.85;;
25721;SDS011;13578;53.450;15.496;2023-05-17T09:53:32;3.42;;;1.23;;
25721;SDS011;13578;53.450;15.496;2023-05-17T09:56:39;4.90;;;1.95;;
25721;SDS011;13578;53.450;15.496;2023-05-17T09:59:40;6.55;;;1.30;;
25721;SDS011;13578;53.450;15.496;2023-05-17T10:02:41;15.45;;;2.10;;
25721;SDS011;13578;53.450;15.496;2023-05-17T10:08:51;12.35;;;2.47;;
25721;SDS011;13578;53.450;15.496;2023-05-17T10:11:55;8.45;;;2.22;;
25721;SDS011;13578;53.450;15.496;2023-05-17T10:14:56;10.20;;;2.03;;
25721;SDS011;13578;53.450;15.496;2023-05-17T10:17:58;9.60;;;1.65;;
25721;SDS011;13578;53.450;15.496;2023-05-17T10:20:59;5.75;;;1.17;;
25721;SDS011;13578;53.450;15.496;2023-05-17T10:24:01;14.30;;;2.08;;
25721;SDS011;13578;53.450;15.496;2023-05-17T10:27:03;7.40;;;1.95;;
25721;SDS011;13578;53.450;15.496;2023-05-17T10:30:06;11.00;;;2.03;;
25721;SDS011;13578;53.450;15.496;2023-05-17T10:33:10;5.80;;;1.38;;
25721;SDS011;13578;53.450;15.496;2023-05-17T10:36:13;8.38;;;1.70;;
25721;SDS011;13578;53.450;15.496;2023-05-17T10:39:16;10.43;;;2.00;;
25721;SDS011;13578;53.450;15.496;2023-05-17T10:42:20;9.52;;;1.42;;
25721;SDS011;13578;53.450;15.496;2023-05-17T10:45:23;3.10;;;1.05;;
25721;SDS011;13578;53.450;15.496;2023-05-17T10:48:26;10.23;;;1.98;;
25721;SDS011;13578;53.450;15.496;2023-05-17T10:51:31;16.10;;;1.85;;
25721;SDS011;13578;53.450;15.496;2023-05-17T10:54:37;7.70;;;1.90;;
25721;SDS011;13578;53.450;15.496;2023-05-17T10:57:40;9.07;;;1.55;;
25721;SDS011;13578;53.450;15.496;2023-05-17T11:00:45;7.65;;;1.90;;
25721;SDS011;13578;53.450;15.496;2023-05-17T11:03:49;9.82;;;2.53;;
25721;SDS011;13578;53.450;15.496;2023-05-17T11:06:50;5.95;;;1.58;;
25721;SDS011;13578;53.450;15.496;2023-05-17T11:10:11;12.27;;;2.00;;
25721;SDS011;13578;53.450;15.496;2023-05-17T11:13:22;6.63;;;1.38;;
25721;SDS011;13578;53.450;15.496;2023-05-17T11:16:27;5.40;;;1.58;;
25721;SDS011;13578;53.450;15.496;2023-05-17T11:19:33;12.70;;;2.30;;
25721;SDS011;13578;53.450;15.496;2023-05-17T11:22:48;9.02;;;1.85;;
25721;SDS011;13578;53.450;15.496;2023-05-17T11:25:49;4.82;;;1.85;;
25721;SDS011;13578;53.450;15.496;2023-05-17T11:28:59;7.35;;;2.42;;
25721;SDS011;13578;53.450;15.496;2023-05-17T11:32:04;5.28;;;1.55;;
25721;SDS011;13578;53.450;15.496;2023-05-17T11:35:08;4.07;;;1.15;;
25721;SDS011;13578;53.450;15.496;2023-05-17T11:38:12;6.93;;;1.45;;
25721;SDS011;13578;53.450;15.496;2023-05-17T11:41:18;5.65;;;1.60;;
25721;SDS011;13578;53.450;15.496;2023-05-17T11:44:25;13.95;;;1.05;;
25721;SDS011;13578;53.450;15.496;2023-05-17T11:47:29;18.23;;;3.80;;
25721;SDS011;13578;53.450;15.496;2023-05-17T11:50:30;12.10;;;1.65;;
25721;SDS011;13578;53.450;15.496;2023-05-17T11:53:31;6.38;;;1.52;;
25721;SDS011;13578;53.450;15.496;2023-05-17T11:56:52;5.38;;;1.48;;
25721;SDS011;13578;53.450;15.496;2023-05-17T11:59:59;9.13;;;1.48;;
25721;SDS011;13578;53.450;15.496;2023-05-17T12:06:37;8.60;;;1.67;;
25721;SDS011;13578;53.450;15.496;2023-05-17T12:09:38;12.63;;;1.67;;
25721;SDS011;13578;53.450;15.496;2023-05-17T12:12:39;13.38;;;2.13;;
25721;SDS011;13578;53.450;15.496;2023-05-17T12:15:42;5.13;;;1.02;;
25721;SDS011;13578;53.450;15.496;2023-05-17T12:18:48;7.40;;;1.65;;
25721;SDS011;13578;53.450;15.496;2023-05-17T12:21:50;1.55;;;0.52;;
25721;SDS011;13578;53.450;15.496;2023-05-17T12:24:50;6.68;;;1.85;;
25721;SDS011;13578;53.450;15.496;2023-05-17T12:27:51;9.98;;;2.17;;
25721;SDS011;13578;53.450;15.496;2023-05-17T12:30:53;13.38;;;3.47;;
25721;SDS011;13578;53.450;15.496;2023-05-17T12:33:57;5.85;;;1.85;;
25721;SDS011;13578;53.450;15.496;2023-05-17T12:36:58;9.05;;;1.60;;
25721;SDS011;13578;53.450;15.496;2023-05-17T12:39:59;7.57;;;1.52;;
25721;SDS011;13578;53.450;15.496;2023-05-17T12:43:03;9.30;;;2.08;;
25721;SDS011;13578;53.450;15.496;2023-05-17T12:46:05;4.45;;;1.58;;
25721;SDS011;13578;53.450;15.496;2023-05-17T12:49:11;7.05;;;2.10;;
25721;SDS011;13578;53.450;15.496;2023-05-17T12:52:12;4.97;;;1.20;;
25721;SDS011;13578;53.450;15.496;2023-05-17T12:55:12;10.50;;;2.55;;
25721;SDS011;13578;53.450;15.496;2023-05-17T12:58:13;6.90;;;2.10;;
25721;SDS011;13578;53.450;15.496;2023-05-17T13:01:14;11.35;;;1.75;;
25721;SDS011;13578;53.450;15.496;2023-05-17T13:04:15;6.10;;;1.27;;
25721;SDS011;13578;53.450;15.496;2023-05-17T13:07:20;9.20;;;1.60;;
25721;SDS011;13578;53.450;15.496;2023-05-17T13:10:26;6.45;;;1.85;;
25721;SDS011;13578;53.450;15.496;2023-05-17T13:13:31;4.28;;;1.45;;
25721;SDS011;13578;53.450;15.496;2023-05-17T13:16:32;6.20;;;1.48;;
25721;SDS011;13578;53.450;15.496;2023-05-17T13:19:36;5.85;;;1.38;;
25721;SDS011;13578;53.450;15.496;2023-05-17T13:22:47;5.88;;;1.00;;
25721;SDS011;13578;53.450;15.496;2023-05-17T13:25:48;8.98;;;2.30;;
25721;SDS011;13578;53.450;15.496;2023-05-17T13:28:49;10.65;;;2.22;;
25721;SDS011;13578;53.450;15.496;2023-05-17T13:31:50;13.35;;;1.60;;
25721;SDS011;13578;53.450;15.496;2023-05-17T13:34:51;6.43;;;1.60;;
25721;SDS011;13578;53.450;15.496;2023-05-17T13:37:52;7.95;;;1.77;;
25721;SDS011;13578;53.450;15.496;2023-05-17T13:40:52;8.90;;;1.60;;
25721;SDS011;13578;53.450;15.496;2023-05-17T13:43:53;6.28;;;1.63;;
25721;SDS011;13578;53.450;15.496;2023-05-17T13:46:53;9.38;;;1.50;;
25721;SDS011;13578;53.450;15.496;2023-05-17T13:49:54;6.10;;;1.30;;
25721;SDS011;13578;53.450;15.496;2023-05-17T13:52:55;10.45;;;1.73;;
25721;SDS011;13578;53.450;15.496;2023-05-17T13:55:56;7.32;;;1.20;;
25721;SDS011;13578;53.450;15.496;2023-05-17T13:58:56;4.18;;;0.90;;
25721;SDS011;13578;53.450;15.496;2023-05-17T14:01:57;4.78;;;1.58;;
25721;SDS011;13578;53.450;15.496;2023-05-17T14:04:58;7.53;;;1.90;;
25721;SDS011;13578;53.450;15.496;2023-05-17T14:07:58;16.88;;;1.60;;
25721;SDS011;13578;53.450;15.496;2023-05-17T14:10:59;13.05;;;2.30;;
25721;SDS011;13578;53.450;15.496;2023-05-17T14:13:59;7.85;;;1.52;;
25721;SDS011;13578;53.450;15.496;2023-05-17T14:17:00;7.13;;;1.35;;
25721;SDS011;13578;53.450;15.496;2023-05-17T14:20:01;8.35;;;2.08;;
25721;SDS011;13578;53.450;15.496;2023-05-17T14:23:03;8.60;;;2.75;;
25721;SDS011;13578;53.450;15.496;2023-05-17T14:26:05;7.60;;;1.30;;
25721;SDS011;13578;53.450;15.496;2023-05-17T14:29:06;6.05;;;1.05;;
25721;SDS011;13578;53.450;15.496;2023-05-17T14:32:07;9.00;;;1.70;;
25721;SDS011;13578;53.450;15.496;2023-05-17T14:35:07;7.13;;;1.33;;
25721;SDS011;13578;53.450;15.496;2023-05-17T14:38:08;9.95;;;1.55;;
25721;SDS011;13578;53.450;15.496;2023-05-17T14:41:09;6.18;;;1.00;;
25721;SDS011;13578;53.450;15.496;2023-05-17T14:44:10;11.45;;;1.52;;
25721;SDS011;13578;53.450;15.496;2023-05-17T14:47:10;6.97;;;1.23;;
25721;SDS011;13578;53.450;15.496;2023-05-17T14:50:11;8.25;;;1.45;;
25721;SDS011;13578;53.450;15.496;2023-05-17T14:53:11;10.50;;;1.65;;
25721;SDS011;13578;53.450;15.496;2023-05-17T14:56:12;14.50;;;2.13;;
25721;SDS011;13578;53.450;15.496;2023-05-17T14:59:14;9.65;;;2.30;;
25721;SDS011;13578;53.450;15.496;2023-05-17T15:02:15;17.20;;;1.75;;
25721;SDS011;13578;53.450;15.496;2023-05-17T15:05:15;3.63;;;1.08;;
25721;SDS011;13578;53.450;15.496;2023-05-17T15:08:16;12.40;;;1.40;;
25721;SDS011;13578;53.450;15.496;2023-05-17T15:11:17;5.50;;;0.75;;
25721;SDS011;13578;53.450;15.496;2023-05-17T15:14:17;8.85;;;1.17;;
25721;SDS011;13578;53.450;15.496;2023-05-17T15:17:21;5.55;;;1.30;;
25721;SDS011;13578;53.450;15.496;2023-05-17T15:20:22;11.18;;;1.60;;
25721;SDS011;13578;53.450;15.496;2023-05-17T15:23:22;2.67;;;1.23;;
25721;SDS011;13578;53.450;15.496;2023-05-17T15:26:23;6.82;;;1.55;;
25721;SDS011;13578;53.450;15.496;2023-05-17T15:29:24;7.85;;;1.60;;
25721;SDS011;13578;53.450;15.496;2023-05-17T15:32:25;3.85;;;1.38;;
25721;SDS011;13578;53.450;15.496;2023-05-17T15:35:25;6.80;;;1.23;;
25721;SDS011;13578;53.450;15.496;2023-05-17T15:38:26;3.67;;;0.88;;
25721;SDS011;13578;53.450;15.496;2023-05-17T15:41:29;7.45;;;1.05;;
25721;SDS011;13578;53.450;15.496;2023-05-17T15:44:30;6.65;;;1.23;;
25721;SDS011;13578;53.450;15.496;2023-05-17T15:47:31;6.00;;;1.15;;
25721;SDS011;13578;53.450;15.496;2023-05-17T15:50:32;6.93;;;1.33;;
25721;SDS011;13578;53.450;15.496;2023-05-17T15:53:33;4.63;;;1.23;;
25721;SDS011;13578;53.450;15.496;2023-05-17T15:56:33;4.63;;;1.48;;
25721;SDS011;13578;53.450;15.496;2023-05-17T15:59:37;4.40;;;1.17;;
25721;SDS011;13578;53.450;15.496;2023-05-17T16:02:37;6.30;;;1.35;;
25721;SDS011;13578;53.450;15.496;2023-05-17T16:05:38;4.72;;;1.83;;
25721;SDS011;13578;53.450;15.496;2023-05-17T16:08:39;2.60;;;0.88;;
25721;SDS011;13578;53.450;15.496;2023-05-17T16:11:40;5.20;;;1.10;;
25721;SDS011;13578;53.450;15.496;2023-05-17T16:14:41;16.15;;;2.08;;
25721;SDS011;13578;53.450;15.496;2023-05-17T16:17:43;4.90;;;1.05;;
25721;SDS011;13578;53.450;15.496;2023-05-17T16:20:44;4.57;;;1.00;;
25721;SDS011;13578;53.450;15.496;2023-05-17T16:23:45;9.57;;;1.45;;
25721;SDS011;13578;53.450;15.496;2023-05-17T16:26:46;5.00;;;1.15;;
25721;SDS011;13578;53.450;15.496;2023-05-17T16:29:46;3.97;;;1.13;;
25721;SDS011;13578;53.450;15.496;2023-05-17T16:32:47;6.85;;;1.27;;
25721;SDS011;13578;53.450;15.496;2023-05-17T16:35:48;6.43;;;1.60;;
25721;SDS011;13578;53.450;15.496;2023-05-17T16:38:49;5.60;;;1.63;;
25721;SDS011;13578;53.450;15.496;2023-05-17T16:41:51;14.50;;;1.30;;
25721;SDS011;13578;53.450;15.496;2023-05-17T16:44:53;6.30;;;0.95;;
25721;SDS011;13578;53.450;15.496;2023-05-17T16:47:54;3.78;;;1.00;;
25721;SDS011;13578;53.450;15.496;2023-05-17T16:50:55;7.85;;;1.38;;
25721;SDS011;13578;53.450;15.496;2023-05-17T16:53:57;7.80;;;1.58;;
25721;SDS011;13578;53.450;15.496;2023-05-17T16:56:58;9.38;;;1.38;;
25721;SDS011;13578;53.450;15.496;2023-05-17T16:59:58;7.10;;;2.05;;
25721;SDS011;13578;53.450;15.496;2023-05-17T17:03:00;13.88;;;1.38;;
25721;SDS011;13578;53.450;15.496;2023-05-17T17:06:00;5.65;;;2.10;;
25721;SDS011;13578;53.450;15.496;2023-05-17T17:09:01;1.88;;;0.90;;
25721;SDS011;13578;53.450;15.496;2023-05-17T17:12:03;7.05;;;0.90;;
25721;SDS011;13578;53.450;15.496;2023-05-17T17:15:05;7.22;;;2.03;;
25721;SDS011;13578;53.450;15.496;2023-05-17T17:18:06;7.60;;;1.48;;
25721;SDS011;13578;53.450;15.496;2023-05-17T17:21:07;5.25;;;1.55;;
25721;SDS011;13578;53.450;15.496;2023-05-17T17:24:07;4.20;;;1.00;;
25721;SDS011;13578;53.450;15.496;2023-05-17T17:27:08;1.13;;;0.90;;
25721;SDS011;13578;53.450;15.496;2023-05-17T17:30:09;4.38;;;1.52;;
25721;SDS011;13578;53.450;15.496;2023-05-17T17:33:10;10.73;;;1.17;;
25721;SDS011;13578;53.450;15.496;2023-05-17T17:36:11;5.60;;;1.23;;
25721;SDS011;13578;53.450;15.496;2023-05-17T17:39:11;2.70;;;0.82;;
25721;SDS011;13578;53.450;15.496;2023-05-17T17:42:13;8.70;;;1.10;;
25721;SDS011;13578;53.450;15.496;2023-05-17T17:45:14;5.35;;;1.23;;
25721;SDS011;13578;53.450;15.496;2023-05-17T17:48:14;5.10;;;1.38;;
25721;SDS011;13578;53.450;15.496;2023-05-17T17:51:15;2.08;;;0.60;;
25721;SDS011;13578;53.450;15.496;2023-05-17T17:54:15;9.10;;;2.25;;
25721;SDS011;13578;53.450;15.496;2023-05-17T17:57:16;3.90;;;1.40;;
25721;SDS011;13578;53.450;15.496;2023-05-17T18:00:18;5.00;;;2.08;;
25721;SDS011;13578;53.450;15.496;2023-05-17T18:03:19;7.07;;;2.08;;
25721;SDS011;13578;53.450;15.496;2023-05-17T18:06:19;8.30;;;1.40;;
25721;SDS011;13578;53.450;15.496;2023-05-17T18:09:21;8.88;;;1.20;;